Time;durP1;ratioP1;P1;durP2;ratioP2;P2;SDS_P1;SDS_P2;PMS_P1;PMS_P2;Temp;Humidity;BMP_temperature;BMP_pressure;BME280_temperature;BME280_humidity;BME280_pressure;Samples;Min_cycle;Max_cycle;Signal;HPM_P1;HPM_P2
2021/03/24 00:01:48;;;;;;;32.38;13.13;;;1.90;99.90;;;;;;4988394;28;20559;-77
2021/03/24 00:04:13;;;;;;;39.83;13.25;;;1.90;99.90;;;;;;4990466;28;20403;-77
2021/03/24 00:06:40;;;;;;;31.52;13.25;;;1.90;99.90;;;;;;4989180;28;20049;-78
2021/03/24 00:09:08;;;;;;;32.30;14.13;;;1.90;99.90;;;;;;4991806;28;20505;-77
2021/03/24 00:11:34;;;;;;;28.98;13.23;;;1.90;99.90;;;;;;4993470;28;20038;-77
2021/03/24 00:13:59;;;;;;;27.15;13.30;;;1.80;99.90;;;;;;5001051;28;20526;-77
2021/03/24 00:16:25;;;;;;;34.72;14.13;;;1.80;99.90;;;;;;4987720;28;20046;-79
2021/03/24 00:18:51;;;;;;;32.38;13.60;;;1.80;99.90;;;;;;4992102;28;20050;-77
2021/03/24 00:21:17;;;;;;;32.55;13.07;;;1.80;99.90;;;;;;4989958;28;20030;-77
2021/03/24 00:23:42;;;;;;;33.17;13.88;;;1.80;99.90;;;;;;4991798;28;20137;-78
2021/03/24 00:26:08;;;;;;;29.38;11.82;;;1.80;99.90;;;;;;4990484;28;21991;-80
2021/03/24 00:28:34;;;;;;;28.63;12.65;;;1.70;99.90;;;;;;4989203;28;20057;-75
2021/03/24 00:30:59;;;;;;;29.55;13.85;;;1.70;99.90;;;;;;4988263;28;20035;-81
2021/03/24 00:33:26;;;;;;;32.15;14.02;;;1.70;99.90;;;;;;5000015;28;20058;-74
2021/03/24 00:35:53;;;;;;;33.15;14.18;;;1.70;99.90;;;;;;4990580;28;20046;-80
2021/03/24 00:38:20;;;;;;;28.73;13.77;;;1.60;99.90;;;;;;4990754;28;20045;-77
2021/03/24 00:40:50;;;;;;;34.30;14.32;;;1.70;99.90;;;;;;4990431;28;20042;-79
2021/03/24 00:43:16;;;;;;;32.15;13.85;;;1.60;99.90;;;;;;4994336;28;20038;-76
2021/03/24 00:45:42;;;;;;;36.20;14.43;;;1.60;99.90;;;;;;4992053;28;20088;-78
2021/03/24 00:48:30;;;;;;;33.90;13.10;;;1.60;99.90;;;;;;4989375;28;20443;-75
2021/03/24 00:50:57;;;;;;;32.30;14.15;;;1.60;99.90;;;;;;4991257;28;20041;-76
2021/03/24 00:53:23;;;;;;;41.35;14.75;;;1.60;99.90;;;;;;4993841;28;20038;-79
2021/03/24 00:55:49;;;;;;;45.78;14.68;;;1.60;99.90;;;;;;4987807;28;20117;-76
2021/03/24 00:58:16;;;;;;;38.17;14.85;;;1.60;99.90;;;;;;4988260;28;20042;-76
2021/03/24 01:00:42;;;;;;;33.35;13.38;;;1.50;99.90;;;;;;4992451;28;20041;-75
2021/03/24 01:03:08;;;;;;;34.58;13.93;;;1.50;99.90;;;;;;4992598;28;20126;-76
2021/03/24 01:05:34;;;;;;;46.28;14.55;;;1.50;99.90;;;;;;4989762;28;20779;-77
2021/03/24 01:08:02;;;;;;;30.92;14.27;;;1.50;99.90;;;;;;4986210;28;20537;-79
2021/03/24 01:10:31;;;;;;;39.03;15.40;;;1.50;99.90;;;;;;4988030;28;20518;-78
2021/03/24 01:12:57;;;;;;;31.65;13.60;;;1.50;99.90;;;;;;4989819;28;20093;-76
2021/03/24 01:15:23;;;;;;;33.15;13.90;;;1.50;99.90;;;;;;4987990;28;20034;-79
2021/03/24 01:17:49;;;;;;;34.63;15.55;;;1.50;99.90;;;;;;4986461;28;20050;-78
2021/03/24 01:20:16;;;;;;;34.70;13.98;;;1.40;99.90;;;;;;4987568;28;20026;-76
2021/03/24 01:22:42;;;;;;;36.17;15.02;;;1.40;99.90;;;;;;4986997;28;20148;-76
2021/03/24 01:25:08;;;;;;;42.25;14.90;;;1.40;99.90;;;;;;4990445;28;20464;-78
2021/03/24 01:27:34;;;;;;;34.38;14.18;;;1.40;99.90;;;;;;4991286;28;20215;-79
2021/03/24 01:30:00;;;;;;;32.22;13.13;;;1.40;99.90;;;;;;4990757;28;20157;-76
2021/03/24 01:32:26;;;;;;;32.83;14.13;;;1.40;99.90;;;;;;4990066;28;20514;-78
2021/03/24 01:34:51;;;;;;;30.10;13.73;;;1.40;99.90;;;;;;4990209;28;20042;-79
2021/03/24 01:37:17;;;;;;;35.33;14.73;;;1.40;99.90;;;;;;4995102;28;20038;-77
2021/03/24 01:39:43;;;;;;;39.97;14.32;;;1.30;99.90;;;;;;4987602;28;20538;-78
2021/03/24 01:42:09;;;;;;;41.60;14.30;;;1.30;99.90;;;;;;4990442;28;20042;-76
2021/03/24 01:45:13;;;;;;;33.03;13.32;;;1.30;99.90;;;;;;4988072;28;20038;-77
2021/03/24 01:47:39;;;;;;;39.33;14.85;;;1.30;99.90;;;;;;4988466;28;20075;-77
2021/03/24 01:50:20;;;;;;;32.45;13.10;;;1.30;99.90;;;;;;4990992;28;20054;-77
2021/03/24 01:52:46;;;;;;;36.50;15.25;;;1.20;99.90;;;;;;4987268;28;20088;-77
2021/03/24 01:55:12;;;;;;;43.25;15.52;;;1.20;99.90;;;;;;4986004;28;20495;-76
2021/03/24 01:57:38;;;;;;;42.10;15.73;;;1.20;99.90;;;;;;4989195;28;20777;-77
2021/03/24 02:00:11;;;;;;;46.45;15.18;;;1.20;99.90;;;;;;4998294;28;20042;-77
2021/03/24 02:02:37;;;;;;;41.05;16.27;;;1.20;99.90;;;;;;4998413;28;20046;-79
2021/03/24 02:05:04;;;;;;;38.70;15.25;;;1.10;99.90;;;;;;4988273;28;20038;-79
2021/03/24 02:07:37;;;;;;;39.28;15.23;;;1.10;99.90;;;;;;4990401;28;20026;-77
2021/03/24 02:10:06;;;;;;;36.90;14.52;;;1.10;99.90;;;;;;4988122;28;20039;-78
2021/03/24 02:12:39;;;;;;;40.88;15.30;;;1.20;99.90;;;;;;4989579;28;20034;-76
2021/03/24 02:15:16;;;;;;;35.53;14.85;;;1.10;99.90;;;;;;4985517;28;20169;-77
2021/03/24 02:17:45;;;;;;;39.75;14.55;;;1.10;99.90;;;;;;4986475;28;20471;-76
2021/03/24 02:20:25;;;;;;;40.25;15.50;;;1.10;99.90;;;;;;4988793;28;20121;-77
2021/03/24 02:22:55;;;;;;;38.15;15.43;;;1.10;99.90;;;;;;4991182;28;20117;-78
2021/03/24 02:25:29;;;;;;;42.28;15.65;;;1.10;99.90;;;;;;5001106;28;20042;-75
2021/03/24 02:27:58;;;;;;;42.75;15.82;;;1.10;99.90;;;;;;4991363;28;20037;-78
2021/03/24 02:30:28;;;;;;;36.53;14.57;;;1.00;99.90;;;;;;4989838;28;20507;-77
2021/03/24 02:33:00;;;;;;;34.13;15.23;;;1.10;99.90;;;;;;4989082;28;20048;-77
2021/03/24 02:35:32;;;;;;;42.38;16.15;;;1.00;99.90;;;;;;4997720;28;20521;-78
2021/03/24 02:38:00;;;;;;;35.42;16.15;;;1.10;99.90;;;;;;4990634;28;20050;-76
2021/03/24 02:40:27;;;;;;;42.97;14.85;;;1.00;99.90;;;;;;4999411;28;20038;-79
2021/03/24 02:42:53;;;;;;;37.83;15.30;;;1.00;99.90;;;;;;4989544;28;20069;-77
2021/03/24 02:45:23;;;;;;;39.85;16.27;;;1.00;99.90;;;;;;4994599;28;20108;-75
2021/03/24 02:47:51;;;;;;;36.90;15.43;;;1.00;99.90;;;;;;4991518;28;20082;-75
2021/03/24 02:50:19;;;;;;;40.63;16.33;;;1.00;99.90;;;;;;4992663;28;20036;-76
2021/03/24 02:52:45;;;;;;;33.25;16.13;;;1.00;99.90;;;;;;4992571;28;20041;-76
2021/03/24 02:55:14;;;;;;;41.03;15.85;;;1.00;99.90;;;;;;4990806;28;20435;-75
2021/03/24 02:57:39;;;;;;;42.15;16.35;;;0.90;99.90;;;;;;4987581;28;20655;-78
2021/03/24 03:00:09;;;;;;;37.13;15.15;;;0.90;99.90;;;;;;4991021;28;20037;-75
2021/03/24 03:02:39;;;;;;;43.00;16.48;;;0.90;99.90;;;;;;4981429;28;20038;-75
2021/03/24 03:05:10;;;;;;;43.65;15.77;;;0.90;99.90;;;;;;4987667;28;20053;-79
2021/03/24 03:07:43;;;;;;;41.40;15.88;;;0.90;99.90;;;;;;4989927;28;20089;-75
2021/03/24 03:10:15;;;;;;;40.00;17.53;;;0.90;99.90;;;;;;4995057;28;20034;-76
2021/03/24 03:12:59;;;;;;;44.22;16.33;;;1.00;99.90;;;;;;4995309;28;20538;-78
2021/03/24 03:15:37;;;;;;;37.67;16.10;;;0.90;99.90;;;;;;4994511;28;20042;-78
2021/03/24 03:18:21;;;;;;;39.83;15.48;;;0.90;99.90;;;;;;4996808;28;20037;-78
2021/03/24 03:20:53;;;;;;;40.28;16.67;;;0.80;99.90;;;;;;4993974;28;20543;-78
2021/03/24 03:23:25;;;;;;;35.72;16.35;;;0.80;99.90;;;;;;4993614;28;20034;-76
2021/03/24 03:26:04;;;;;;;36.45;16.75;;;0.80;99.90;;;;;;4994501;28;20029;-79
2021/03/24 03:28:31;;;;;;;41.58;15.63;;;0.80;99.90;;;;;;4994846;28;20499;-75
2021/03/24 03:30:58;;;;;;;41.50;16.83;;;0.80;99.90;;;;;;4995042;28;20046;-75
2021/03/24 03:33:28;;;;;;;40.35;15.93;;;0.80;99.90;;;;;;4993543;28;20129;-75
2021/03/24 03:35:55;;;;;;;37.78;15.98;;;0.70;99.90;;;;;;4995316;28;20118;-76
2021/03/24 03:38:24;;;;;;;47.80;17.50;;;0.80;99.90;;;;;;4996285;28;20069;-77
2021/03/24 03:40:54;;;;;;;36.13;16.08;;;0.80;99.90;;;;;;4996563;28;20714;-75
2021/03/24 03:43:21;;;;;;;39.90;16.00;;;0.70;99.90;;;;;;4996077;28;20050;-78
2021/03/24 03:45:50;;;;;;;38.60;16.10;;;0.80;99.90;;;;;;4999504;28;20216;-78
2021/03/24 03:48:17;;;;;;;44.90;16.20;;;0.70;99.90;;;;;;4997141;28;20065;-75
2021/03/24 03:50:47;;;;;;;46.22;16.65;;;0.70;99.90;;;;;;4995714;28;20037;-75
2021/03/24 03:53:30;;;;;;;41.83;15.90;;;0.70;99.90;;;;;;4994328;28;20049;-79
2021/03/24 03:56:06;;;;;;;35.72;17.58;;;0.70;99.90;;;;;;4995334;28;20160;-76
2021/03/24 03:58:49;;;;;;;51.40;16.90;;;0.70;99.90;;;;;;4995463;28;20046;-76
2021/03/24 04:01:24;;;;;;;47.08;16.58;;;0.60;99.90;;;;;;4995049;28;20049;-75
2021/03/24 04:04:00;;;;;;;40.28;17.38;;;0.70;99.90;;;;;;4992542;28;20046;-77
2021/03/24 04:06:49;;;;;;;43.65;16.75;;;0.70;99.90;;;;;;4992437;28;20034;-76
2021/03/24 04:09:15;;;;;;;39.55;16.75;;;0.70;99.90;;;;;;4994135;28;20034;-78
2021/03/24 04:11:48;;;;;;;43.22;16.80;;;0.60;99.90;;;;;;4995483;28;20036;-77
2021/03/24 04:14:18;;;;;;;54.15;17.80;;;0.70;99.90;;;;;;4995027;28;20487;-77
2021/03/24 04:16:46;;;;;;;50.40;17.42;;;0.60;99.90;;;;;;4993195;28;20074;-75
2021/03/24 04:19:16;;;;;;;40.30;16.17;;;0.60;99.90;;;;;;4993944;28;20089;-76
2021/03/24 04:21:45;;;;;;;41.90;17.38;;;0.60;99.90;;;;;;4995325;28;20056;-76
2021/03/24 04:24:22;;;;;;;44.72;17.23;;;0.60;99.90;;;;;;5000465;28;20478;-76
2021/03/24 04:26:53;;;;;;;40.80;17.38;;;0.60;99.90;;;;;;4994576;28;20655;-76
2021/03/24 04:29:24;;;;;;;38.33;16.00;;;0.60;99.90;;;;;;4996028;28;20081;-76
2021/03/24 04:31:53;;;;;;;42.80;17.80;;;0.70;99.90;;;;;;4995969;28;20066;-75
2021/03/24 04:34:21;;;;;;;38.33;16.10;;;0.60;99.90;;;;;;4993139;28;20185;-79
2021/03/24 04:37:16;;;;;;;45.95;17.13;;;0.50;99.90;;;;;;4995114;28;20430;-76
2021/03/24 04:39:47;;;;;;;37.92;16.77;;;0.60;99.90;;;;;;4994633;28;20479;-76
2021/03/24 04:42:20;;;;;;;33.05;16.35;;;0.50;99.90;;;;;;4994219;28;20045;-75
2021/03/24 04:44:50;;;;;;;40.55;17.20;;;0.50;99.90;;;;;;4997027;28;20030;-76
2021/03/24 04:47:43;;;;;;;41.33;17.35;;;0.60;99.90;;;;;;4991362;28;20033;-76
2021/03/24 04:50:26;;;;;;;46.10;17.35;;;0.50;99.90;;;;;;5009881;28;20647;-76
2021/03/24 04:52:53;;;;;;;37.65;16.33;;;0.50;99.90;;;;;;4993139;28;20045;-76
2021/03/24 04:55:24;;;;;;;41.05;17.00;;;0.50;99.90;;;;;;4994459;28;20436;-76
2021/03/24 04:57:55;;;;;;;42.33;18.23;;;0.50;99.90;;;;;;4993405;28;20161;-76
2021/03/24 05:00:51;;;;;;;41.28;17.05;;;0.50;99.90;;;;;;4993714;28;20038;-78
2021/03/24 05:03:21;;;;;;;41.10;17.55;;;0.50;99.90;;;;;;4993072;28;20102;-75
2021/03/24 05:06:00;;;;;;;41.63;16.98;;;0.40;99.90;;;;;;4991992;28;20038;-78
2021/03/24 05:08:40;;;;;;;36.72;17.73;;;0.40;99.90;;;;;;4994269;28;20084;-79
2021/03/24 05:11:43;;;;;;;43.60;17.85;;;0.40;99.90;;;;;;4998775;28;20209;-75
2021/03/24 05:14:26;;;;;;;47.90;17.63;;;0.40;99.90;;;;;;5003480;28;20065;-77
2021/03/24 05:17:13;;;;;;;44.63;16.40;;;0.40;99.90;;;;;;4991070;28;20034;-78
2021/03/24 05:19:38;;;;;;;42.60;17.58;;;0.40;99.90;;;;;;4990423;28;20042;-82
2021/03/24 05:22:36;;;;;;;46.40;19.02;;;0.50;99.90;;;;;;4988256;28;20130;-76
2021/03/24 05:25:25;;;;;;;41.75;16.27;;;0.50;99.90;;;;;;4989724;28;20061;-78
2021/03/24 05:27:59;;;;;;;38.42;18.23;;;0.50;99.90;;;;;;5006126;28;20035;-77
2021/03/24 05:30:33;;;;;;;43.97;17.55;;;0.50;99.90;;;;;;4990322;28;20030;-76
2021/03/24 05:33:04;;;;;;;44.50;18.98;;;0.40;99.90;;;;;;4985753;28;20121;-77
2021/03/24 05:36:03;;;;;;;43.53;17.88;;;0.40;99.90;;;;;;4991377;28;20054;-77
2021/03/24 05:38:55;;;;;;;56.72;18.95;;;0.50;99.90;;;;;;4986461;28;20132;-77
2021/03/24 05:41:34;;;;;;;44.13;17.10;;;0.40;99.90;;;;;;4990127;28;20049;-80
2021/03/24 05:44:28;;;;;;;45.38;18.73;;;0.50;99.90;;;;;;4994495;28;20031;-82
2021/03/24 05:47:18;;;;;;;41.83;16.80;;;0.50;99.90;;;;;;4988468;28;20458;-76
2021/03/24 05:50:06;;;;;;;41.97;16.85;;;0.50;99.90;;;;;;4986237;28;20116;-79
2021/03/24 05:53:01;;;;;;;47.92;19.20;;;0.60;99.90;;;;;;4992652;28;20137;-78
2021/03/24 05:55:42;;;;;;;;;;;0.60;99.90;;;;;;4990194;28;20041;-77
2021/03/24 05:58:27;;;;;;;42.17;17.85;;;0.70;99.90;;;;;;4997701;28;19959;-76
2021/03/24 06:01:01;;;;;;;40.78;18.30;;;0.70;99.90;;;;;;4991019;28;20537;-77
2021/03/24 06:03:48;;;;;;;59.40;19.48;;;0.80;99.90;;;;;;4991725;28;20045;-77
2021/03/24 06:06:55;;;;;;;56.60;20.17;;;0.90;99.90;;;;;;4991932;28;20388;-78
2021/03/24 06:09:42;;;;;;;53.35;18.75;;;1.00;99.90;;;;;;4999359;28;20654;-76
2021/03/24 06:12:23;;;;;;;54.78;18.92;;;1.00;99.90;;;;;;4989235;28;20049;-76
2021/03/24 06:15:23;;;;;;;56.10;19.95;;;1.20;99.90;;;;;;4989788;28;20065;-77
2021/03/24 06:18:08;;;;;;;52.03;20.85;;;1.30;99.90;;;;;;4994722;28;20047;-76
2021/03/24 06:20:38;;;;;;;46.25;19.13;;;1.40;99.90;;;;;;4997895;28;20065;-79
2021/03/24 06:23:24;;;;;;;48.85;18.52;;;1.50;99.90;;;;;;4989897;28;20042;-79
2021/03/24 06:26:10;;;;;;;58.65;18.98;;;1.60;99.90;;;;;;4991624;28;20034;-78
2021/03/24 06:29:05;;;;;;;47.30;19.08;;;1.70;99.90;;;;;;4991306;28;20384;-77
2021/03/24 06:31:49;;;;;;;50.53;19.27;;;1.90;99.90;;;;;;5008661;28;20033;-77
2021/03/24 06:34:36;;;;;;;44.67;18.55;;;1.90;99.90;;;;;;4991970;28;20038;-79
2021/03/24 06:37:42;;;;;;;48.15;19.10;;;2.10;99.90;;;;;;4992017;28;20034;-80
2021/03/24 06:40:41;;;;;;;41.75;18.25;;;2.20;99.90;;;;;;4988160;28;20046;-77
2021/03/24 06:43:15;;;;;;;44.40;19.45;;;2.40;99.90;;;;;;4994481;28;20046;-76
2021/03/24 06:45:49;;;;;;;43.22;18.63;;;2.50;99.90;;;;;;4996794;28;20124;-79
2021/03/24 06:48:33;;;;;;;50.60;19.90;;;2.70;99.90;;;;;;5004383;28;20125;-80
2021/03/24 06:51:06;;;;;;;46.78;18.92;;;2.70;99.90;;;;;;4994479;28;20034;-76
2021/03/24 06:54:06;;;;;;;45.03;17.42;;;2.90;99.90;;;;;;4998993;28;20033;-79
2021/03/24 06:57:00;;;;;;;46.88;18.38;;;3.10;99.90;;;;;;4995893;28;20105;-81
2021/03/24 06:59:47;;;;;;;57.15;17.15;;;3.30;99.90;;;;;;4997112;28;20877;-78
2021/03/24 07:02:31;;;;;;;44.55;18.92;;;3.50;99.90;;;;;;4998722;28;20038;-78
2021/03/24 07:05:15;;;;;;;;;;;4.10;99.90;;;;;;5007177;28;20129;-77
2021/03/24 07:08:18;;;;;;;42.38;18.02;;;4.40;99.90;;;;;;4995865;28;19914;-78
2021/03/24 07:11:14;;;;;;;40.35;17.10;;;4.80;99.90;;;;;;4997520;28;20090;-78
2021/03/24 07:13:58;;;;;;;46.75;17.08;;;5.50;99.90;;;;;;4999882;28;20058;-81
2021/03/24 07:16:35;;;;;;;46.93;16.97;;;5.80;99.90;;;;;;5000101;28;20045;-76
2021/03/24 07:19:26;;;;;;;39.67;16.75;;;5.90;99.90;;;;;;4997717;28;20589;-81
2021/03/24 07:22:00;;;;;;;38.22;15.52;;;6.40;99.90;;;;;;4998236;28;20053;-77
2021/03/24 07:24:46;;;;;;;34.90;15.75;;;7.00;98.50;;;;;;5002628;28;20049;-78
2021/03/24 07:27:36;;;;;;;39.75;15.52;;;6.80;95.30;;;;;;5001584;28;20041;-77
2021/03/24 07:30:29;;;;;;;48.15;16.98;;;7.20;94.30;;;;;;4999490;28;20101;-78
2021/03/24 07:33:06;;;;;;;40.33;16.13;;;7.00;94.10;;;;;;4997470;28;20041;-77
2021/03/24 07:35:57;;;;;;;35.75;17.35;;;6.70;94.50;;;;;;4996126;28;20565;-77
2021/03/24 07:38:38;;;;;;;47.50;18.08;;;6.60;94.70;;;;;;5002391;28;20038;-80
2021/03/24 07:41:21;;;;;;;40.85;16.80;;;6.80;93.90;;;;;;4998052;28;20029;-78
2021/03/24 07:43:53;;;;;;;45.10;17.13;;;6.90;94.40;;;;;;5000896;28;20040;-79
2021/03/24 07:46:46;;;;;;;37.67;16.80;;;7.30;94.20;;;;;;5000373;28;20038;-77
2021/03/24 07:49:31;;;;;;;40.60;16.92;;;7.60;93.40;;;;;;4998289;28;20112;-77
2021/03/24 07:52:08;;;;;;;45.65;17.35;;;7.50;91.30;;;;;;5000493;28;20042;-81
2021/03/24 07:54:39;;;;;;;36.80;15.63;;;7.70;91.70;;;;;;4996976;28;20038;-80
2021/03/24 07:57:27;;;;;;;38.53;15.80;;;7.80;89.80;;;;;;4994314;28;20076;-77
2021/03/24 08:00:20;;;;;;;32.65;15.15;;;7.70;87.40;;;;;;4997707;28;20037;-77
2021/03/24 08:03:10;;;;;;;35.83;16.55;;;7.90;88.30;;;;;;4996702;28;20108;-79
2021/03/24 08:06:11;;;;;;;37.67;16.10;;;8.40;86.10;;;;;;4996477;28;20065;-80
2021/03/24 08:09:05;;;;;;;33.90;15.35;;;8.60;82.50;;;;;;4988112;28;20038;-80
2021/03/24 08:11:39;;;;;;;42.47;17.40;;;9.00;80.10;;;;;;4977100;28;20133;-78
2021/03/24 08:14:30;;;;;;;44.50;16.17;;;9.00;77.50;;;;;;4995176;28;20038;-77
2021/03/24 08:17:02;;;;;;;42.95;18.05;;;9.30;78.10;;;;;;4995489;28;20054;-80
2021/03/24 08:19:52;;;;;;;41.95;15.32;;;9.90;74.40;;;;;;4997638;28;20510;-78
2021/03/24 08:22:32;;;;;;;30.75;14.65;;;10.50;70.60;;;;;;4995928;28;20148;-80
2021/03/24 08:25:15;;;;;;;31.38;15.23;;;10.80;66.00;;;;;;4995087;28;20038;-78
2021/03/24 08:28:03;;;;;;;34.83;15.57;;;11.40;64.10;;;;;;4995310;28;20475;-78
2021/03/24 08:30:44;;;;;;;35.33;14.93;;;12.00;60.10;;;;;;4994488;28;20447;-78
2021/03/24 08:33:46;;;;;;;32.80;15.60;;;10.90;59.70;;;;;;4977823;28;20038;-78
2021/03/24 08:36:37;;;;;;;30.55;14.77;;;10.70;62.30;;;;;;4996521;28;20041;-78
2021/03/24 08:39:14;;;;;;;41.53;14.73;;;10.20;63.90;;;;;;4994679;28;20668;-77
2021/03/24 08:41:58;;;;;;;37.92;14.65;;;10.40;62.80;;;;;;4992713;28;20499;-79
2021/03/24 08:44:27;;;;;;;30.45;14.60;;;10.70;62.40;;;;;;4997129;28;20046;-78
2021/03/24 08:46:56;;;;;;;32.58;15.15;;;10.80;61.90;;;;;;4992752;28;20042;-79
2021/03/24 08:49:34;;;;;;;42.58;15.65;;;11.20;61.00;;;;;;4998159;28;20532;-78
2021/03/24 08:52:09;;;;;;;33.95;14.82;;;11.50;60.00;;;;;;4993746;28;20411;-78
2021/03/24 08:54:50;;;;;;;39.13;14.98;;;11.60;58.50;;;;;;4998605;28;20038;-79
2021/03/24 08:57:33;;;;;;;46.50;16.88;;;11.30;59.10;;;;;;4995060;28;20069;-78
2021/03/24 09:00:22;;;;;;;33.05;16.10;;;12.10;58.10;;;;;;4992505;28;20120;-76
2021/03/24 09:02:48;;;;;;;32.95;14.75;;;13.00;54.10;;;;;;4995141;28;20124;-78
2021/03/24 09:05:38;;;;;;;31.27;14.70;;;13.00;50.40;;;;;;4994324;28;20042;-79
2021/03/24 09:08:17;;;;;;;27.73;13.75;;;13.80;49.20;;;;;;4993005;28;20112;-78
2021/03/24 09:11:20;;;;;;;31.05;14.70;;;14.20;47.20;;;;;;4995358;28;20088;-80
2021/03/24 09:14:12;;;;;;;33.88;16.17;;;14.10;45.80;;;;;;5002195;28;20034;-81
2021/03/24 09:17:08;;;;;;;31.35;15.60;;;14.10;42.60;;;;;;4993864;28;20612;-78
2021/03/24 09:20:21;;;;;;;34.03;14.35;;;14.60;41.90;;;;;;4991221;28;20129;-81
2021/03/24 09:23:01;;;;;;;31.83;15.05;;;15.30;40.60;;;;;;4989355;28;20537;-79
2021/03/24 09:25:59;;;;;;;31.83;14.32;;;15.70;37.00;;;;;;4993240;28;20041;-78
2021/03/24 09:28:50;;;;;;;34.08;15.95;;;15.80;36.00;;;;;;5003240;28;20038;-81
2021/03/24 09:31:54;;;;;;;42.42;15.70;;;15.90;34.50;;;;;;4996833;28;20062;-80
2021/03/24 09:34:57;;;;;;;33.63;16.35;;;17.30;32.50;;;;;;4989574;28;20532;-79
2021/03/24 09:37:36;;;;;;;29.58;15.05;;;17.10;32.00;;;;;;4987548;28;20031;-78
2021/03/24 09:40:09;;;;;;;29.23;13.93;;;17.30;28.30;;;;;;4993319;28;20046;-76
2021/03/24 09:42:39;;;;;;;33.58;14.07;;;15.40;29.70;;;;;;4991154;28;20384;-73
2021/03/24 09:45:09;;;;;;;29.83;14.75;;;16.00;30.40;;;;;;4986422;28;20399;-74
2021/03/24 09:47:40;;;;;;;33.45;16.27;;;16.80;29.80;;;;;;4987775;28;20038;-74
2021/03/24 09:50:11;;;;;;;31.08;14.60;;;16.80;28.50;;;;;;4987511;28;20092;-75
2021/03/24 09:52:55;;;;;;;42.13;15.02;;;17.20;27.50;;;;;;4987530;28;20662;-75
2021/03/24 09:55:47;;;;;;;29.65;15.23;;;18.60;25.60;;;;;;4991747;28;20050;-76
2021/03/24 09:58:15;;;;;;;33.53;15.25;;;18.30;24.70;;;;;;5002768;28;20076;-75
2021/03/24 10:00:56;;;;;;;27.30;14.77;;;18.80;24.90;;;;;;4993055;28;20104;-75
2021/03/24 10:03:49;;;;;;;28.55;15.38;;;18.60;23.50;;;;;;4990695;28;20522;-74
2021/03/24 10:06:42;;;;;;;27.73;14.20;;;18.60;23.00;;;;;;4990564;28;20049;-75
2021/03/24 10:09:16;;;;;;;27.20;13.68;;;19.20;23.70;;;;;;4997824;28;20496;-76
2021/03/24 10:12:05;;;;;;;29.83;14.13;;;19.30;23.50;;;;;;4992862;28;20172;-75
2021/03/24 10:14:42;;;;;;;33.00;16.13;;;19.60;21.40;;;;;;4995324;28;20133;-74
2021/03/24 10:17:22;;;;;;;29.73;13.23;;;19.20;22.10;;;;;;4995023;28;20046;-73
2021/03/24 10:20:01;;;;;;;25.45;13.73;;;19.30;21.00;;;;;;4993112;28;20092;-74
2021/03/24 10:22:45;;;;;;;25.45;13.35;;;20.50;21.20;;;;;;4991634;28;20071;-74
2021/03/24 10:25:14;;;;;;;27.65;13.73;;;19.60;19.70;;;;;;4993984;28;20064;-74
2021/03/24 10:27:45;;;;;;;27.85;13.40;;;19.80;20.30;;;;;;4996725;28;20045;-74
2021/03/24 10:30:11;;;;;;;31.35;13.55;;;19.70;20.10;;;;;;4994324;28;20037;-74
2021/03/24 10:32:48;;;;;;;29.65;13.73;;;20.00;21.70;;;;;;4991419;28;20760;-75
2021/03/24 10:35:32;;;;;;;23.02;13.32;;;20.60;20.00;;;;;;4989014;28;20037;-75
2021/03/24 10:38:05;;;;;;;33.67;14.50;;;20.60;18.90;;;;;;4986155;28;20483;-74
2021/03/24 10:40:35;;;;;;;27.27;12.37;;;20.70;19.20;;;;;;4990037;28;20034;-75
2021/03/24 10:43:11;;;;;;;31.92;14.88;;;19.90;19.00;;;;;;4988667;28;20034;-74
2021/03/24 10:45:43;;;;;;;27.35;13.68;;;18.10;19.10;;;;;;4983778;28;20113;-75
2021/03/24 10:48:34;;;;;;;27.65;12.95;;;18.70;21.90;;;;;;4986681;28;20097;-74
2021/03/24 10:51:02;;;;;;;27.48;13.02;;;19.10;20.50;;;;;;4987372;28;20501;-74
2021/03/24 10:53:30;;;;;;;33.05;14.25;;;19.50;20.60;;;;;;4990142;28;20113;-75
2021/03/24 10:56:21;;;;;;;34.63;13.35;;;19.50;19.80;;;;;;4987127;28;20069;-76
2021/03/24 10:59:14;;;;;;;27.08;13.40;;;19.30;20.90;;;;;;4982553;28;20038;-74
2021/03/24 11:01:50;;;;;;;26.10;14.15;;;19.40;20.60;;;;;;4970613;28;20152;-75
2021/03/24 11:04:36;;;;;;;24.65;12.27;;;18.90;21.10;;;;;;4961534;28;20564;-76
2021/03/24 11:07:12;;;;;;;26.98;12.55;;;20.10;20.90;;;;;;4952969;28;20073;-74
2021/03/24 11:10:01;;;;;;;28.77;12.77;;;20.30;18.80;;;;;;4972059;28;20046;-74
2021/03/24 11:12:58;;;;;;;23.48;12.10;;;20.10;18.90;;;;;;4960978;28;20184;-75
2021/03/24 11:15:40;;;;;;;27.55;12.60;;;21.30;19.30;;;;;;4985079;28;20027;-74
2021/03/24 11:18:10;;;;;;;26.00;13.43;;;21.30;17.90;;;;;;4995120;28;20034;-73
2021/03/24 11:21:00;;;;;;;29.73;14.70;;;21.30;17.80;;;;;;4988365;28;20094;-75
2021/03/24 11:23:46;;;;;;;30.42;12.82;;;21.90;17.70;;;;;;4990217;28;20081;-75
2021/03/24 11:26:18;;;;;;;28.38;13.15;;;21.70;18.20;;;;;;4986390;28;20042;-75
2021/03/24 11:28:47;;;;;;;37.28;12.95;;;20.40;17.10;;;;;;4991123;28;20360;-75
2021/03/24 11:31:17;;;;;;;31.55;14.55;;;20.60;19.60;;;;;;4990195;28;20030;-76
2021/03/24 11:33:51;;;;;;;25.75;13.50;;;20.70;18.80;;;;;;4992029;28;20054;-75
2021/03/24 11:36:20;;;;;;;26.23;13.88;;;20.60;19.00;;;;;;4994187;28;20236;-75
2021/03/24 11:38:57;;;;;;;33.78;13.95;;;20.50;18.00;;;;;;4990560;28;20042;-75
2021/03/24 11:41:29;;;;;;;36.30;15.32;;;20.10;19.50;;;;;;4989742;28;20050;-75
2021/03/24 11:44:07;;;;;;;29.73;13.88;;;21.10;18.50;;;;;;4988877;28;20053;-75
2021/03/24 11:47:01;;;;;;;23.25;13.32;;;21.00;18.20;;;;;;4989547;28;20066;-75
2021/03/24 11:50:06;;;;;;;31.77;14.35;;;20.50;18.20;;;;;;4990088;28;20125;-75
2021/03/24 11:52:40;;;;;;;;;;;18.90;19.50;;;;;;4973252;28;20042;-74
2021/03/24 11:55:38;;;;;;;33.15;14.57;;;19.90;19.70;;;;;;4979569;28;19918;-75
2021/03/24 11:58:16;;;;;;;34.38;15.05;;;20.70;19.70;;;;;;4969712;28;20074;-74
2021/03/24 12:01:05;;;;;;;40.05;15.27;;;20.30;18.90;;;;;;4980828;28;20041;-75
2021/03/24 12:04:02;;;;;;;29.10;15.70;;;20.50;19.60;;;;;;4988660;28;20030;-74
2021/03/24 12:06:40;;;;;;;35.45;15.20;;;20.00;19.90;;;;;;4988619;28;20495;-74
2021/03/24 12:09:11;;;;;;;29.38;15.27;;;20.20;20.00;;;;;;4999703;28;20035;-74
2021/03/24 12:11:41;;;;;;;29.48;14.20;;;21.20;19.30;;;;;;4990802;28;20109;-74
2021/03/24 12:14:20;;;;;;;25.10;14.15;;;20.60;19.30;;;;;;4991159;28;20156;-74
2021/03/24 12:16:53;;;;;;;40.17;16.50;;;20.60;19.30;;;;;;4989650;28;20038;-74
2021/03/24 12:19:42;;;;;;;33.40;14.55;;;19.60;20.10;;;;;;4988459;28;20117;-74
2021/03/24 12:22:28;;;;;;;25.88;14.18;;;20.40;19.50;;;;;;4989490;28;20042;-73
2021/03/24 12:25:15;;;;;;;26.55;15.23;;;19.00;21.30;;;;;;4999855;28;21212;-74
2021/03/24 12:27:43;;;;;;;29.77;14.88;;;19.60;21.10;;;;;;4994195;28;20069;-74
2021/03/24 12:30:22;;;;;;;27.05;14.70;;;20.20;20.70;;;;;;4989675;28;20044;-74
2021/03/24 12:32:48;;;;;;;32.55;17.55;;;20.60;19.30;;;;;;4990424;28;20100;-75
2021/03/24 12:35:23;;;;;;;33.80;14.60;;;20.80;19.40;;;;;;4987202;28;20046;-75
2021/03/24 12:37:55;;;;;;;27.98;15.43;;;20.90;19.30;;;;;;4993516;28;20050;-74
2021/03/24 12:40:24;;;;;;;29.15;15.10;;;21.10;20.20;;;;;;4988315;28;20084;-75
2021/03/24 12:43:04;;;;;;;28.88;14.63;;;21.40;20.00;;;;;;4989070;28;20061;-75
2021/03/24 12:45:39;;;;;;;25.02;14.30;;;21.10;19.30;;;;;;4987873;28;20483;-75
2021/03/24 12:48:28;;;;;;;24.27;14.38;;;22.00;19.10;;;;;;4991291;28;20443;-75
2021/03/24 12:50:59;;;;;;;27.83;14.73;;;21.20;19.90;;;;;;4993716;28;20136;-78
2021/03/24 12:53:35;;;;;;;32.92;15.45;;;21.30;19.00;;;;;;4987371;28;20045;-75
2021/03/24 12:56:14;;;;;;;26.90;15.77;;;21.20;19.30;;;;;;4988466;28;20034;-75
2021/03/24 12:58:54;;;;;;;32.50;15.82;;;20.20;19.50;;;;;;4987168;28;20133;-75
2021/03/24 13:01:25;;;;;;;29.70;15.93;;;20.20;19.50;;;;;;4992113;28;20573;-74
2021/03/24 13:04:09;;;;;;;28.17;14.35;;;20.20;21.00;;;;;;4990663;28;20073;-75
2021/03/24 13:06:46;;;;;;;29.13;14.85;;;20.60;20.60;;;;;;4987675;28;20421;-75
2021/03/24 13:09:37;;;;;;;24.48;14.27;;;20.80;19.80;;;;;;4991401;28;20030;-75
2021/03/24 13:12:06;;;;;;;28.67;15.07;;;20.50;19.60;;;;;;4988002;28;20050;-74
2021/03/24 13:14:40;;;;;;;28.60;14.80;;;20.50;20.00;;;;;;4993582;28;20045;-74
2021/03/24 13:17:38;;;;;;;27.63;14.43;;;21.00;20.10;;;;;;4990068;28;20157;-74
2021/03/24 13:20:21;;;;;;;29.23;14.63;;;21.00;20.00;;;;;;4997141;28;20037;-74
2021/03/24 13:23:00;;;;;;;28.25;15.57;;;20.40;20.50;;;;;;4990533;28;20525;-74
2021/03/24 13:25:39;;;;;;;32.28;15.50;;;20.60;20.40;;;;;;4990961;28;20041;-74
2021/03/24 13:28:08;;;;;;;29.83;15.50;;;20.30;20.80;;;;;;4989955;28;20586;-74